Time;durP1;ratioP1;P1;durP2;ratioP2;P2;SDS_P1;SDS_P2;PMS_P1;PMS_P2;Temp;Humidity;BMP_temperature;BMP_pressure;BME280_temperature;BME280_humidity;BME280_pressure;Samples;Min_cycle;Max_cycle;Signal;HPM_P1;HPM_P2
2022/10/27 00:00:39;;;;;;;104.27;38.67;;;;;;;8.36;100.00;100685.22;4199918;28;20351;-72
2022/10/27 00:03:05;;;;;;;93.33;36.73;;;;;;;8.41;100.00;100693.66;4199335;28;20411;-73
2022/10/27 00:05:33;;;;;;;107.93;38.83;;;;;;;8.42;100.00;100692.69;4206664;28;20427;-71
2022/10/27 00:08:00;;;;;;;96.33;37.07;;;;;;;8.60;100.00;100687.69;4204266;28;20228;-73
2022/10/27 00:10:26;;;;;;;106.43;40.00;;;;;;;8.66;100.00;100678.38;4204117;28;25334;-72
2022/10/27 00:12:53;;;;;;;102.97;40.57;;;;;;;8.81;100.00;100687.72;4200387;28;21329;-72
2022/10/27 00:15:20;;;;;;;110.57;39.47;;;;;;;8.74;100.00;100686.56;4189727;28;20225;-74
2022/10/27 00:17:47;;;;;;;97.07;39.27;;;;;;;8.68;100.00;100691.53;4199488;28;20374;-73
2022/10/27 00:20:13;;;;;;;109.77;39.83;;;;;;;8.72;100.00;100691.16;4214522;28;20280;-73
2022/10/27 00:22:40;;;;;;;104.47;39.90;;;;;;;8.82;100.00;100693.88;4198912;28;20236;-71
2022/10/27 00:25:06;;;;;;;106.00;39.80;;;;;;;8.83;100.00;100701.72;4202839;28;20237;-74
2022/10/27 00:27:34;;;;;;;103.30;40.73;;;;;;;8.67;100.00;100690.69;4199101;28;20243;-75
2022/10/27 00:30:00;;;;;;;108.97;40.53;;;;;;;8.82;100.00;100704.50;4202072;28;20244;-74
2022/10/27 00:32:27;;;;;;;106.23;39.40;;;;;;;8.72;100.00;100698.28;4209854;28;20229;-71
2022/10/27 00:34:53;;;;;;;95.17;39.67;;;;;;;8.75;100.00;100700.66;4204512;28;21732;-71
2022/10/27 00:37:20;;;;;;;109.23;41.30;;;;;;;8.82;100.00;100705.31;4212901;28;20928;-73
2022/10/27 00:39:47;;;;;;;99.83;40.37;;;;;;;8.86;100.00;100712.06;4202112;28;20251;-71
2022/10/27 00:42:13;;;;;;;108.13;40.87;;;;;;;8.85;100.00;100720.19;4214800;28;20573;-71
2022/10/27 00:44:43;;;;;;;90.90;37.10;;;;;;;8.81;100.00;100716.09;4192683;28;20316;-72
2022/10/27 00:47:23;;;;;;;92.40;36.77;;;;;;;8.72;100.00;100708.88;4207179;28;20228;-73
2022/10/27 00:50:03;;;;;;;93.10;37.43;;;;;;;8.80;100.00;100707.28;4212898;28;20312;-73
2022/10/27 00:52:39;;;;;;;87.00;35.60;;;;;;;8.75;100.00;100709.44;4199617;28;20229;-72
2022/10/27 00:55:15;;;;;;;88.53;35.80;;;;;;;8.55;100.00;100712.94;4197025;28;20700;-72
2022/10/27 00:57:43;;;;;;;81.13;34.83;;;;;;;8.59;100.00;100709.03;4176942;28;20237;-73
2022/10/27 01:00:11;;;;;;;75.33;33.90;;;;;;;8.45;100.00;100708.38;4186371;28;20416;-70
2022/10/27 01:02:37;;;;;;;82.13;34.57;;;;;;;8.36;100.00;100705.59;4199466;28;20632;-73
2022/10/27 01:05:09;;;;;;;85.43;35.57;;;;;;;8.30;100.00;100709.56;4195208;28;20250;-72
2022/10/27 01:07:35;;;;;;;87.70;35.20;;;;;;;8.38;100.00;100708.94;4206271;28;20512;-73
2022/10/27 01:10:02;;;;;;;78.57;32.73;;;;;;;8.33;100.00;100706.66;4214744;28;20467;-72
2022/10/27 01:12:29;;;;;;;80.60;33.67;;;;;;;8.27;100.00;100701.88;4202066;28;20606;-72
2022/10/27 01:14:55;;;;;;;79.60;33.03;;;;;;;8.28;100.00;100708.84;4199188;28;20241;-71
2022/10/27 01:17:31;;;;;;;76.87;31.80;;;;;;;8.37;100.00;100700.13;4204272;28;23373;-72
2022/10/27 01:20:19;;;;;;;72.17;31.83;;;;;;;8.29;100.00;100701.72;4186975;28;21735;-74
2022/10/27 01:22:52;;;;;;;73.23;30.10;;;;;;;8.23;100.00;100697.75;4210221;28;20406;-72
2022/10/27 01:25:40;;;;;;;80.33;32.87;;;;;;;8.08;100.00;100693.69;4216928;28;20233;-73
2022/10/27 01:28:32;;;;;;;70.10;30.10;;;;;;;8.08;100.00;100693.69;4209355;28;20292;-74
2022/10/27 01:31:19;;;;;;;67.73;29.00;;;;;;;8.02;100.00;100679.97;4204105;28;21225;-72
2022/10/27 01:33:49;;;;;;;63.10;27.70;;;;;;;8.06;100.00;100688.53;4197948;28;20293;-73
2022/10/27 01:36:24;;;;;;;57.37;26.73;;;;;;;8.02;100.00;100682.59;4188848;28;20308;-72
2022/10/27 01:39:05;;;;;;;59.27;28.33;;;;;;;7.91;100.00;100685.25;4209333;28;20256;-73
2022/10/27 01:41:50;;;;;;;51.33;26.37;;;;;;;7.94;100.00;100693.00;4211209;28;20451;-69
2022/10/27 01:44:30;;;;;;;53.70;26.70;;;;;;;7.97;100.00;100687.44;4204706;28;21101;-72
2022/10/27 01:46:57;;;;;;;54.83;26.20;;;;;;;8.03;100.00;100681.66;4192020;28;20451;-72
2022/10/27 01:49:23;;;;;;;46.17;23.93;;;;;;;7.96;100.00;100699.00;4191130;28;20229;-72
2022/10/27 01:51:50;;;;;;;54.03;26.20;;;;;;;7.90;100.00;100693.34;4201468;28;20336;-72
2022/10/27 01:54:19;;;;;;;48.87;25.00;;;;;;;7.88;100.00;100695.28;4194177;28;20240;-73
2022/10/27 01:57:22;;;;;;;53.30;25.93;;;;;;;7.89;100.00;100699.59;4202922;28;20245;-71
2022/10/27 01:59:59;;;;;;;45.03;24.33;;;;;;;7.93;100.00;100695.75;4198452;28;20237;-72
2022/10/27 02:02:40;;;;;;;52.20;25.33;;;;;;;7.81;100.00;100694.91;4210589;28;21816;-72
2022/10/27 02:05:17;;;;;;;48.77;25.90;;;;;;;7.80;100.00;100693.25;4201757;28;20247;-73
2022/10/27 02:07:47;;;;;;;47.00;25.50;;;;;;;7.74;100.00;100691.06;4207819;28;20259;-72
2022/10/27 02:10:17;;;;;;;51.97;25.90;;;;;;;7.66;100.00;100689.03;4201899;28;20244;-74
2022/10/27 02:12:44;;;;;;;51.97;25.90;;;;;;;7.58;100.00;100696.72;4200141;28;21122;-73
2022/10/27 02:15:19;;;;;;;43.90;23.93;;;;;;;7.60;100.00;100694.78;4190998;28;20248;-73
2022/10/27 02:17:46;;;;;;;45.73;23.97;;;;;;;7.66;100.00;100701.44;4185756;28;25776;-72
2022/10/27 02:20:18;;;;;;;42.73;23.33;;;;;;;7.73;100.00;100697.34;4198927;28;20243;-72
2022/10/27 02:22:45;;;;;;;48.50;24.23;;;;;;;7.56;100.00;100690.69;4184397;28;22208;-73
2022/10/27 02:25:19;;;;;;;46.47;23.97;;;;;;;7.46;100.00;100703.78;4186965;28;20838;-70
2022/10/27 02:27:50;;;;;;;46.60;23.97;;;;;;;7.45;100.00;100707.41;4199249;28;20997;-74
2022/10/27 02:30:17;;;;;;;44.17;24.07;;;;;;;7.40;100.00;100709.59;4198424;28;21973;-72
2022/10/27 02:32:43;;;;;;;44.13;22.77;;;;;;;7.48;100.00;100709.00;4219534;28;21796;-72
2022/10/27 02:35:11;;;;;;;40.20;21.93;;;;;;;7.56;100.00;100703.91;4197691;28;20237;-71
2022/10/27 02:37:39;;;;;;;42.10;21.87;;;;;;;7.50;100.00;100710.56;4188536;28;21171;-72
2022/10/27 02:40:07;;;;;;;39.17;21.57;;;;;;;7.49;100.00;100711.53;4204354;28;20230;-73
2022/10/27 02:42:34;;;;;;;37.20;21.43;;;;;;;7.53;100.00;100714.75;4208475;28;21268;-73
2022/10/27 02:45:00;;;;;;;45.77;22.97;;;;;;;7.57;100.00;100716.22;4200120;28;20277;-72
2022/10/27 02:47:26;;;;;;;45.33;22.17;;;;;;;7.59;100.00;100712.50;4196975;28;20486;-72
2022/10/27 02:49:53;;;;;;;41.87;21.30;;;;;;;7.50;100.00;100721.13;4200538;28;20282;-72
2022/10/27 02:52:20;;;;;;;42.27;21.70;;;;;;;7.55;100.00;100724.28;4201303;28;20237;-73
2022/10/27 02:54:47;;;;;;;42.10;21.80;;;;;;;7.47;100.00;100728.47;4203063;28;20361;-73
2022/10/27 02:57:15;;;;;;;37.33;21.00;;;;;;;7.40;100.00;100726.31;4195901;28;20236;-74
2022/10/27 02:59:41;;;;;;;41.80;21.97;;;;;;;7.36;100.00;100724.84;4201511;28;20344;-74
2022/10/27 03:02:08;;;;;;;38.13;20.30;;;;;;;7.34;100.00;100728.56;4200048;28;26472;-72
2022/10/27 03:04:35;;;;;;;42.23;21.00;;;;;;;7.28;100.00;100729.91;4188825;28;22167;-73
2022/10/27 03:07:03;;;;;;;44.17;22.40;;;;;;;7.26;100.00;100733.59;4197559;28;20241;-74
2022/10/27 03:09:29;;;;;;;36.40;19.60;;;;;;;7.23;100.00;100734.66;4193025;28;20342;-73
2022/10/27 03:11:56;;;;;;;41.37;22.10;;;;;;;7.17;100.00;100728.03;4201872;28;20504;-74
2022/10/27 03:14:22;;;;;;;40.97;22.03;;;;;;;7.29;100.00;100728.09;4202184;28;20238;-74
2022/10/27 03:16:48;;;;;;;37.37;21.87;;;;;;;7.36;100.00;100722.19;4207549;28;20860;-73
2022/10/27 03:19:15;;;;;;;37.73;21.67;;;;;;;7.18;100.00;100732.38;4188750;28;21328;-73
2022/10/27 03:21:41;;;;;;;40.53;21.47;;;;;;;7.14;100.00;100736.22;4197966;28;23559;-74
2022/10/27 03:24:08;;;;;;;37.20;21.43;;;;;;;7.24;100.00;100738.19;4210346;28;20669;-73
2022/10/27 03:26:34;;;;;;;40.00;21.37;;;;;;;7.11;100.00;100735.59;4200937;28;20481;-73
2022/10/27 03:29:01;;;;;;;35.27;21.17;;;;;;;7.09;100.00;100727.75;4191166;28;20232;-73
2022/10/27 03:31:27;;;;;;;45.33;21.80;;;;;;;7.15;100.00;100729.97;4206742;28;23188;-72
2022/10/27 03:33:54;;;;;;;39.27;21.20;;;;;;;7.12;100.00;100732.84;4186416;28;20229;-73
2022/10/27 03:36:21;;;;;;;38.47;20.80;;;;;;;7.02;100.00;100726.53;4201024;28;22613;-74
2022/10/27 03:38:48;;;;;;;38.03;20.50;;;;;;;7.05;100.00;100728.97;4201729;28;21068;-73
2022/10/27 03:41:14;;;;;;;38.17;20.93;;;;;;;7.11;100.00;100727.66;4187750;28;20247;-74
2022/10/27 03:43:41;;;;;;;40.87;22.37;;;;;;;7.04;100.00;100727.28;4206940;28;20411;-72
2022/10/27 03:46:09;;;;;;;42.17;21.47;;;;;;;7.11;100.00;100728.50;4190991;28;20427;-74
2022/10/27 03:48:35;;;;;;;40.43;22.60;;;;;;;7.04;100.00;100731.72;4202281;28;20342;-73
2022/10/27 03:51:02;;;;;;;43.07;21.50;;;;;;;7.07;100.00;100729.72;4191515;28;20252;-75
2022/10/27 03:53:28;;;;;;;39.37;20.17;;;;;;;7.10;100.00;100740.06;4200416;28;20429;-75
2022/10/27 03:55:55;;;;;;;40.17;20.47;;;;;;;6.95;100.00;100743.84;4203767;28;20277;-74
2022/10/27 03:58:21;;;;;;;38.37;20.90;;;;;;;6.89;100.00;100736.38;4207380;28;20654;-74
2022/10/27 04:00:48;;;;;;;40.77;21.97;;;;;;;6.83;100.00;100742.09;4196963;28;20276;-74
2022/10/27 04:03:15;;;;;;;40.07;21.73;;;;;;;6.75;100.00;100740.88;4198535;28;20232;-74
2022/10/27 04:05:41;;;;;;;35.83;19.83;;;;;;;6.92;100.00;100744.91;4215343;28;20963;-73
2022/10/27 04:08:08;;;;;;;39.77;21.60;;;;;;;7.00;100.00;100739.06;4195727;28;20236;-73
2022/10/27 04:10:34;;;;;;;42.77;21.73;;;;;;;6.94;100.00;100739.50;4218137;28;20233;-73
2022/10/27 04:13:01;;;;;;;41.97;21.53;;;;;;;6.92;100.00;100742.25;4197802;28;20387;-74
2022/10/27 04:15:28;;;;;;;37.83;20.90;;;;;;;6.81;100.00;100744.00;4198219;28;20245;-75
2022/10/27 04:17:56;;;;;;;36.97;21.07;;;;;;;6.69;100.00;100743.97;4200295;28;20233;-76
2022/10/27 04:20:23;;;;;;;31.87;19.67;;;;;;;6.89;100.00;100741.66;4199390;28;20252;-73
2022/10/27 04:22:49;;;;;;;35.13;19.67;;;;;;;6.99;100.00;100742.66;4195321;28;20307;-73
2022/10/27 04:25:16;;;;;;;35.90;20.33;;;;;;;6.94;100.00;100744.81;4203386;28;20242;-73
2022/10/27 04:27:43;;;;;;;39.07;22.27;;;;;;;6.81;100.00;100746.66;4202581;28;20253;-73
2022/10/27 04:30:10;;;;;;;39.93;21.77;;;;;;;6.81;100.00;100744.00;4206499;28;20414;-75
2022/10/27 04:32:37;;;;;;;42.23;21.50;;;;;;;6.85;100.00;100746.31;4218048;28;21491;-72
2022/10/27 04:35:05;;;;;;;41.10;22.27;;;;;;;6.85;100.00;100738.38;4199330;28;20229;-74
2022/10/27 04:37:32;;;;;;;40.27;23.17;;;;;;;6.89;100.00;100747.78;4205276;28;20273;-75
2022/10/27 04:39:59;;;;;;;36.40;22.07;;;;;;;6.89;100.00;100749.59;4200482;28;20307;-73
2022/10/27 04:42:26;;;;;;;40.80;23.13;;;;;;;6.86;100.00;100747.16;4214787;28;20635;-74
2022/10/27 04:44:52;;;;;;;39.37;22.90;;;;;;;6.75;100.00;100751.44;4197596;28;21992;-74
2022/10/27 04:47:19;;;;;;;53.17;25.50;;;;;;;6.78;100.00;100747.72;4196173;28;20233;-74
2022/10/27 04:49:45;;;;;;;44.93;24.50;;;;;;;6.79;100.00;100751.22;4195819;28;20225;-73
2022/10/27 04:52:12;;;;;;;46.97;23.90;;;;;;;6.78;100.00;100754.84;4183806;28;20345;-73
2022/10/27 04:54:43;;;;;;;40.20;22.33;;;;;;;6.72;100.00;100761.44;4200130;28;20239;-75
2022/10/27 04:57:10;;;;;;;51.73;25.67;;;;;;;6.73;100.00;100752.53;4202752;28;20239;-78
2022/10/27 04:59:36;;;;;;;45.93;25.23;;;;;;;6.75;100.00;100754.09;4198082;28;20229;-77
2022/10/27 05:02:03;;;;;;;47.10;25.00;;;;;;;6.72;100.00;100756.97;4194875;28;20565;-77
2022/10/27 05:04:29;;;;;;;47.30;24.87;;;;;;;6.70;100.00;100758.88;4200018;28;21746;-75
2022/10/27 05:06:57;;;;;;;49.93;25.63;;;;;;;6.65;100.00;100766.31;4186159;28;20334;-75
2022/10/27 05:09:23;;;;;;;51.47;29.23;;;;;;;6.70;100.00;100764.19;4202374;28;20247;-74
2022/10/27 05:11:50;;;;;;;51.87;29.27;;;;;;;6.69;100.00;100767.75;4194755;28;20652;-74
2022/10/27 05:14:16;;;;;;;59.47;33.60;;;;;;;6.74;100.00;100775.34;4196604;28;20240;-75
2022/10/27 05:16:43;;;;;;;54.10;28.43;;;;;;;6.74;100.00;100772.72;4198693;28;20256;-75
2022/10/27 05:19:09;;;;;;;42.57;24.87;;;;;;;6.80;100.00;100768.78;4197383;28;25067;-72
2022/10/27 05:21:36;;;;;;;47.53;27.47;;;;;;;6.86;100.00;100776.25;4185887;28;20241;-78
2022/10/27 05:24:02;;;;;;;47.27;26.53;;;;;;;6.76;100.00;100770.81;4208224;28;20412;-74
2022/10/27 05:26:29;;;;;;;45.10;25.17;;;;;;;6.75;100.00;100783.19;4195825;28;20237;-78
2022/10/27 05:29:03;;;;;;;50.53;25.17;;;;;;;6.84;100.00;100786.13;4205565;28;20239;-75
2022/10/27 05:31:29;;;;;;;44.77;24.63;;;;;;;7.05;100.00;100781.91;4204344;28;21147;-73
2022/10/27 05:33:57;;;;;;;46.20;25.17;;;;;;;7.07;100.00;100782.63;4200434;28;22396;-75
2022/10/27 05:36:23;;;;;;;51.30;24.87;;;;;;;7.00;100.00;100791.13;4201578;28;20880;-75
2022/10/27 05:38:49;;;;;;;42.90;24.00;;;;;;;6.95;100.00;100794.09;4206808;28;20244;-74
2022/10/27 05:41:17;;;;;;;46.13;25.20;;;;;;;6.89;100.00;100789.28;4191070;28;21996;-74
2022/10/27 05:43:44;;;;;;;45.57;24.90;;;;;;;6.87;100.00;100791.19;4208836;28;20943;-75
2022/10/27 05:46:10;;;;;;;48.17;25.27;;;;;;;6.87;100.00;100791.19;4207512;28;20265;-76
2022/10/27 05:48:37;;;;;;;42.73;24.87;;;;;;;7.12;100.00;100796.38;4216748;28;20235;-74
2022/10/27 05:51:04;;;;;;;51.57;25.17;;;;;;;7.20;100.00;100798.44;4214547;28;20256;-78
2022/10/27 05:53:31;;;;;;;44.93;25.30;;;;;;;7.12;100.00;100798.19;4207769;28;20233;-82
2022/10/27 05:55:58;;;;;;;48.53;25.53;;;;;;;7.26;100.00;100807.72;4221304;28;20234;-77
2022/10/27 05:58:24;;;;;;;47.23;25.27;;;;;;;7.38;100.00;100801.53;4183622;28;20648;-71
2022/10/27 06:00:51;;;;;;;48.90;24.77;;;;;;;7.39;100.00;100806.69;4198164;28;22713;-74
2022/10/27 06:03:21;;;;;;;46.80;25.13;;;;;;;7.42;100.00;100808.25;4207327;28;20241;-75
2022/10/27 06:05:48;;;;;;;45.17;24.07;;;;;;;7.57;100.00;100807.09;4188891;28;20248;-73
2022/10/27 06:08:15;;;;;;;44.17;25.03;;;;;;;7.56;100.00;100816.03;4186136;28;25570;-73
2022/10/27 06:10:42;;;;;;;49.33;25.83;;;;;;;7.66;100.00;100828.56;4205182;28;20233;-78
2022/10/27 06:13:10;;;;;;;49.17;24.23;;;;;;;7.78;100.00;100820.50;4204669;28;21206;-78
2022/10/27 06:15:36;;;;;;;49.07;25.90;;;;;;;7.89;100.00;100827.66;4188877;28;22867;-74
2022/10/27 06:18:03;;;;;;;44.60;24.50;;;;;;;8.06;100.00;100834.28;4200572;28;20234;-74
2022/10/27 06:20:30;;;;;;;42.30;23.53;;;;;;;8.15;100.00;100830.94;4199208;28;20242;-78
2022/10/27 06:22:58;;;;;;;51.73;24.37;;;;;;;8.16;100.00;100831.75;4197870;28;20665;-79
2022/10/27 06:25:25;;;;;;;45.60;24.30;;;;;;;8.29;100.00;100835.16;4198406;28;22022;-78
2022/10/27 06:27:51;;;;;;;42.13;23.70;;;;;;;8.53;100.00;100839.53;4207886;28;20382;-82
2022/10/27 06:30:19;;;;;;;40.93;20.97;;;;;;;8.61;100.00;100842.38;4207621;28;21766;-81
2022/10/27 06:32:45;;;;;;;45.23;23.40;;;;;;;8.57;100.00;100846.25;4191088;28;20232;-75
2022/10/27 06:35:12;;;;;;;41.17;21.70;;;;;;;8.55;100.00;100846.38;4200385;28;26139;-81
2022/10/27 06:37:39;;;;;;;44.80;23.37;;;;;;;8.55;100.00;100845.56;4198497;28;20321;-77
2022/10/27 06:40:07;;;;;;;38.97;21.33;;;;;;;8.63;100.00;100848.41;4206289;28;20319;-62
2022/10/27 06:42:35;;;;;;;43.10;21.60;;;;;;;8.57;100.00;100856.84;4212874;28;20507;-76
2022/10/27 06:45:22;;;;;;;37.90;21.67;;;;;;;8.61;100.00;100845.03;4216674;28;20287;-74
2022/10/27 06:48:00;;;;;;;39.00;22.80;;;;;;;8.69;100.00;100858.56;4188050;28;20314;-78
2022/10/27 06:50:27;;;;;;;41.37;22.20;;;;;;;8.68;100.00;100859.50;4214562;28;20260;-75
2022/10/27 06:52:54;;;;;;;45.00;20.43;;;;;;;8.88;100.00;100861.41;4205595;28;22315;-70
2022/10/27 06:55:20;;;;;;;43.13;20.67;;;;;;;9.09;100.00;100861.47;4203830;28;20225;-76
2022/10/27 06:57:47;;;;;;;40.13;21.07;;;;;;;9.14;100.00;100866.41;4201337;28;20371;-75
2022/10/27 07:00:14;;;;;;;37.80;20.20;;;;;;;9.13;100.00;100859.44;4223331;28;22252;-73
2022/10/27 07:02:40;;;;;;;37.63;19.73;;;;;;;9.19;100.00;100861.56;4187041;28;20659;-78
2022/10/27 07:05:08;;;;;;;39.17;19.90;;;;;;;9.29;100.00;100865.19;4195268;28;20567;-77
2022/10/27 07:07:35;;;;;;;39.67;20.53;;;;;;;9.43;100.00;100868.50;4202392;28;20407;-77
2022/10/27 07:10:03;;;;;;;32.00;19.80;;;;;;;9.57;100.00;100870.84;4205695;28;20252;-77
2022/10/27 07:12:31;;;;;;;39.17;19.57;;;;;;;9.68;100.00;100867.28;4203796;28;20529;-77
2022/10/27 07:14:58;;;;;;;36.47;19.50;;;;;;;9.89;100.00;100868.13;4205848;28;20233;-76
2022/10/27 07:17:24;;;;;;;38.33;18.87;;;;;;;10.17;100.00;100876.44;4218625;28;20244;-72
2022/10/27 07:19:51;;;;;;;50.00;19.77;;;;;;;10.48;100.00;100882.63;4205400;28;20226;-79
2022/10/27 07:22:18;;;;;;;42.37;19.77;;;;;;;10.71;100.00;100883.28;4197846;28;20248;-79
2022/10/27 07:24:44;;;;;;;40.00;17.53;;;;;;;10.90;100.00;100890.47;4219157;28;22297;-75
2022/10/27 07:27:11;;;;;;;49.77;19.63;;;;;;;10.89;100.00;100891.47;4199969;28;22415;-79
2022/10/27 07:29:37;;;;;;;38.57;18.40;;;;;;;10.94;100.00;100893.72;4196408;28;20588;-77
2022/10/27 07:32:04;;;;;;;46.97;17.70;;;;;;;10.89;100.00;100891.47;4206615;28;20384;-79
2022/10/27 07:34:31;;;;;;;37.07;17.80;;;;;;;10.92;100.00;100895.69;4188789;28;20346;-82
2022/10/27 07:36:58;;;;;;;46.37;17.13;;;;;;;10.89;100.00;100896.81;4201240;28;20237;-76
2022/10/27 07:39:24;;;;;;;35.87;17.10;;;;;;;10.88;100.00;100903.09;4207793;28;20242;-68
2022/10/27 07:41:51;;;;;;;49.20;18.37;;;;;;;10.88;100.00;100903.09;4219645;28;20537;-78
2022/10/27 07:44:17;;;;;;;35.60;17.27;;;;;;;10.95;100.00;100906.88;4236127;28;20641;-74
2022/10/27 07:46:44;;;;;;;45.77;17.10;;;;;;;10.96;100.00;100903.28;4211499;28;21615;-71
2022/10/27 07:49:10;;;;;;;39.90;17.70;;;;;;;11.49;100.00;100899.41;4207223;28;22172;-73
2022/10/27 07:51:37;;;;;;;38.57;17.47;;;;;;;12.48;96.36;100917.88;4238735;28;20242;-74
2022/10/27 07:54:03;;;;;;;40.77;16.00;;;;;;;15.29;84.96;100931.59;4247016;28;21419;-73
2022/10/27 07:56:32;;;;;;;28.13;13.97;;;;;;;19.52;62.05;100959.22;4234978;28;20752;-75
2022/10/27 07:58:58;;;;;;;26.33;13.10;;;;;;;22.62;46.37;100978.28;4249364;28;20824;-77
2022/10/27 08:01:25;;;;;;;35.17;13.27;;;;;;;25.34;38.43;100979.38;4215510;28;20321;-71
2022/10/27 08:03:52;;;;;;;27.23;12.50;;;;;;;27.39;33.54;100984.31;4270976;28;22814;-72
2022/10/27 08:06:20;;;;;;;32.90;12.63;;;;;;;28.18;30.65;100993.41;4243522;28;20626;-54
2022/10/27 08:08:46;;;;;;;28.40;12.53;;;;;;;26.17;33.79;100977.75;4222405;28;21873;-67
2022/10/27 08:11:13;;;;;;;21.83;11.30;;;;;;;24.88;36.17;100969.81;4271353;28;20444;-44
2022/10/27 08:13:40;;;;;;;26.03;12.00;;;;;;;24.79;36.12;100967.38;4263282;28;20487;-70
2022/10/27 08:16:07;;;;;;;25.60;12.57;;;;;;;25.70;34.77;100975.69;4287573;28;21616;-75
2022/10/27 08:18:33;;;;;;;22.93;12.43;;;;;;;27.33;31.48;100984.22;4263918;28;20237;-74
2022/10/27 08:21:02;;;;;;;29.17;12.10;;;;;;;28.39;30.59;100989.09;4242194;28;22832;-78
2022/10/27 08:23:29;;;;;;;27.63;12.70;;;;;;;28.22;29.36;100988.28;4248711;28;20276;-77
2022/10/27 08:25:56;;;;;;;25.43;12.20;;;;;;;29.11;29.10;100992.09;4263256;28;25672;-78
2022/10/27 08:28:23;;;;;;;29.43;12.23;;;;;;;28.64;29.06;100987.06;4256677;28;20533;-73
2022/10/27 08:30:51;;;;;;;21.87;11.40;;;;;;;29.00;28.32;100988.34;4236635;28;20334;-73
2022/10/27 08:33:21;;;;;;;25.23;11.73;;;;;;;29.73;27.24;100990.88;4284348;28;20861;-72
2022/10/27 08:35:51;;;;;;;26.73;12.73;;;;;;;28.44;28.41;100987.53;4270769;28;20338;-83
2022/10/27 08:38:18;;;;;;;22.50;11.83;;;;;;;28.19;29.50;100984.16;4273738;28;20244;-72
2022/10/27 08:41:41;;;;;;;20.83;11.00;;;;;;;28.95;28.50;100980.88;4289437;28;20427;-76
2022/10/27 08:44:34;;;;;;;19.60;10.80;;;;;;;29.43;27.86;100994.91;4221161;28;20390;-72
2022/10/27 08:47:04;;;;;;;24.27;11.00;;;;;;;27.97;29.81;100983.22;4219932;29;21843;-82
2022/10/27 08:49:41;;;;;;;20.30;11.37;;;;;;;29.70;27.35;100985.91;4220294;28;20540;-76
2022/10/27 08:52:36;;;;;;;21.50;10.67;;;;;;;26.76;30.74;100975.88;4256089;28;21101;-75
2022/10/27 08:55:16;;;;;;;18.53;10.43;;;;;;;26.37;32.40;100972.78;4245352;28;20239;-72
2022/10/27 08:57:49;;;;;;;20.20;10.17;;;;;;;26.94;31.07;100978.44;4221016;28;20335;-77
2022/10/27 09:00:16;;;;;;;16.50;9.50;;;;;;;24.55;34.98;100955.50;4248354;28;20231;-77
2022/10/27 09:03:17;;;;;;;20.07;10.30;;;;;;;20.97;43.50;100947.94;4226098;28;20240;-75
2022/10/27 09:06:09;;;;;;;19.10;10.00;;;;;;;18.77;53.11;100928.81;4226778;28;22246;-70
2022/10/27 09:08:53;;;;;;;24.10;11.27;;;;;;;17.77;58.42;100910.22;4219091;28;20296;-74
2022/10/27 09:11:46;;;;;;;21.00;10.93;;;;;;;17.50;60.45;100915.97;4198226;28;20241;-75
2022/10/27 09:14:48;;;;;;;21.23;10.73;;;;;;;16.60;66.20;100918.19;4220273;28;20235;-71
2022/10/27 09:17:27;;;;;;;24.30;11.13;;;;;;;16.48;70.39;100908.84;4236334;28;20308;-74
2022/10/27 09:20:00;;;;;;;35.27;11.73;;;;;;;16.69;67.22;100914.47;4219282;28;20255;-73
2022/10/27 09:22:28;;;;;;;18.37;10.87;;;;;;;16.90;65.80;100919.31;4226771;28;20387;-72
2022/10/27 09:25:01;;;;;;;22.03;11.43;;;;;;;16.81;67.34;100913.16;4238641;28;20233;-72
2022/10/27 09:27:27;;;;;;;25.63;11.27;;;;;;;16.88;67.25;100922.19;4209153;28;21731;-70
2022/10/27 09:29:57;;;;;;;24.30;12.37;;;;;;;16.34;69.79;100913.94;4212556;28;20242;-69
2022/10/27 09:32:31;;;;;;;23.27;12.00;;;;;;;16.22;72.17;100904.53;4230159;28;20239;-70
2022/10/27 09:35:09;;;;;;;24.33;12.47;;;;;;;16.39;72.27;100908.88;4218905;28;20247;-72
2022/10/27 09:37:41;;;;;;;24.13;11.07;;;;;;;16.43;73.13;100902.13;4241332;28;21018;-74
2022/10/27 09:40:13;;;;;;;24.20;11.13;;;;;;;16.41;72.09;100906.88;4240244;28;20245;-71
2022/10/27 09:42:40;;;;;;;18.33;10.30;;;;;;;16.65;70.32;100905.13;4226241;28;20275;-71
2022/10/27 09:45:26;;;;;;;23.10;10.60;;;;;;;16.70;70.40;100913.47;4244693;28;20374;-70
2022/10/27 09:47:58;;;;;;;16.83;9.43;;;;;;;16.62;71.16;100916.19;4238764;28;21007;-73
2022/10/27 09:50:39;;;;;;;20.77;10.10;;;;;;;16.71;71.21;100912.47;4245302;28;20270;-72
2022/10/27 09:53:38;;;;;;;24.17;12.50;;;;;;;16.79;71.67;100906.28;4212382;28;20283;-74
2022/10/27 09:56:07;;;;;;;20.37;11.60;;;;;;;16.20;74.21;100909.22;4218245;28;20253;-73
2022/10/27 09:58:45;;;;;;;26.23;12.27;;;;;;;16.13;75.45;100901.03;4203230;28;20934;-74
2022/10/27 10:01:11;;;;;;;22.93;12.00;;;;;;;16.19;75.60;100910.25;4224548;28;20275;-72
2022/10/27 10:03:38;;;;;;;23.10;11.87;;;;;;;16.30;75.25;100907.22;4217902;28;20252;-73
2022/10/27 10:06:20;;;;;;;23.47;11.87;;;;;;;15.79;77.70;100910.09;4202115;28;20293;-72
2022/10/27 10:08:47;;;;;;;23.10;11.37;;;;;;;15.95;78.44;100917.31;4221447;28;20302;-73
2022/10/27 10:11:21;;;;;;;20.40;10.87;;;;;;;16.18;76.80;100908.59;4235215;28;20240;-71
2022/10/27 10:14:01;;;;;;;22.30;12.53;;;;;;;15.79;78.00;100911.94;4214535;28;20250;-73
2022/10/27 10:16:28;;;;;;;22.33;11.73;;;;;;;15.96;77.94;100912.78;4207551;28;20308;-73
2022/10/27 10:19:06;;;;;;;25.83;12.13;;;;;;;15.75;80.74;100913.28;4212878;28;20252;-72
2022/10/27 10:21:53;;;;;;;18.10;11.07;;;;;;;16.12;78.68;100918.13;4211293;28;20443;-72
2022/10/27 10:24:32;;;;;;;22.70;11.27;;;;;;;16.34;76.26;100919.31;4222919;28;20248;-72
2022/10/27 10:27:01;;;;;;;19.07;9.37;;;;;;;16.63;74.26;100920.56;4224811;28;20334;-72
2022/10/27 10:29:30;;;;;;;19.80;10.00;;;;;;;16.27;76.22;100918.28;4221064;28;20750;-74
2022/10/27 10:32:08;;;;;;;18.97;10.13;;;;;;;16.23;77.42;100916.97;4216496;28;20798;-72
2022/10/27 10:34:35;;;;;;;21.20;10.07;;;;;;;16.45;75.87;100916.22;4214225;28;20300;-74
2022/10/27 10:37:03;;;;;;;17.73;9.60;;;;;;;16.45;74.87;100907.34;4218744;28;25210;-72
2022/10/27 10:39:35;;;;;;;18.43;9.80;;;;;;;16.53;74.39;100906.47;4253720;28;21823;-72
2022/10/27 10:42:16;;;;;;;23.47;9.33;;;;;;;16.74;73.27;100908.59;4213191;28;21272;-73
2022/10/27 10:44:43;;;;;;;17.57;9.57;;;;;;;16.66;74.38;100902.22;4219680;28;20235;-73
2022/10/27 10:47:24;;;;;;;18.27;9.27;;;;;;;16.85;74.00;100900.19;4228537;28;20240;-72
2022/10/27 10:49:54;;;;;;;14.13;8.47;;;;;;;17.08;71.94;100908.31;4219619;28;20299;-71
2022/10/27 10:52:28;;;;;;;26.67;9.67;;;;;;;17.00;72.11;100903.81;4200393;28;20994;-71
2022/10/27 10:54:54;;;;;;;17.10;9.50;;;;;;;16.80;73.79;100905.25;4219349;28;21061;-73
2022/10/27 10:57:28;;;;;;;23.30;8.93;;;;;;;16.74;73.96;100900.53;4224228;28;20301;-73
2022/10/27 10:59:59;;;;;;;23.53;9.10;;;;;;;16.59;73.92;100911.16;4220257;28;20241;-74
2022/10/27 11:02:31;;;;;;;18.20;9.03;;;;;;;16.79;72.18;100907.09;4217845;28;20253;-73
2022/10/27 11:05:10;;;;;;;22.97;8.77;;;;;;;16.85;71.63;100911.75;4208443;28;20289;-73
2022/10/27 11:07:37;;;;;;;16.70;7.23;;;;;;;16.94;70.97;100904.50;4235420;28;20254;-71
2022/10/27 11:10:42;;;;;;;19.10;7.87;;;;;;;16.92;72.19;100908.38;4192634;28;20232;-74
2022/10/27 11:13:25;;;;;;;12.30;7.10;;;;;;;17.08;68.98;100902.94;4214122;28;20232;-73
2022/10/27 11:15:58;;;;;;;19.37;7.50;;;;;;;17.23;68.87;100903.88;4238550;28;22799;-71
2022/10/27 11:18:46;;;;;;;15.50;6.40;;;;;;;17.23;68.24;100898.50;4231468;28;20242;-71
2022/10/27 11:21:19;;;;;;;14.70;7.27;;;;;;;17.29;68.76;100905.81;4217752;28;21439;-71
2022/10/27 11:23:48;;;;;;;18.90;7.57;;;;;;;17.35;70.25;100907.00;4220269;28;23840;-71